North Uniontown, Ohio
Current Conditions -  °F | °C
As of 1:33 AM on Monday 26 Jan 2015 (Local Time) from KILN Reporting Station
Light Snow Light Snow  
Wind Chill: 11°   Ceiling: 1400
Heat Index: 24°   Visibility: 1.5mi
Dew Point: 21°   Wind: 17mph
Humidity: 88%   Direction: 10°N
Pressure: 29.71"   Gusts: 24mph
Location:  39.1546°N, 83.569°W
Report Text: KILN 260633Z AUTO 01015G21KT 1 1/2SM -SN BR OVC014 M04/M06 A2971 RMK AO2 P0002 T10441061
Loading
Personal Weather Stations






























Interactive Weather Map New forecast layout! Learn more

10-Day Weather Forecast

Advertisements
Track Severe Weather on mobile